createdAt,value
2022-09-17T00:00:18.509Z,0.00
2022-09-17T00:01:18.501Z,0.00
2022-09-17T00:02:18.501Z,0.00
2022-09-17T00:03:18.538Z,0.00
2022-09-17T00:04:18.485Z,0.00
2022-09-17T00:05:18.576Z,0.00
2022-09-17T00:06:18.464Z,0.00
2022-09-17T00:07:18.454Z,0.00
2022-09-17T00:08:18.447Z,0.00
2022-09-17T00:09:18.455Z,0.00
2022-09-17T00:10:18.434Z,0.00
2022-09-17T00:11:18.430Z,0.00
2022-09-17T00:12:18.416Z,0.00
2022-09-17T00:13:18.417Z,0.00
2022-09-17T00:14:18.410Z,0.00
2022-09-17T00:15:18.404Z,0.00
2022-09-17T00:16:18.425Z,0.00
2022-09-17T00:17:18.381Z,0.00
2022-09-17T00:18:18.372Z,0.00
2022-09-17T00:19:18.367Z,0.00
2022-09-17T00:20:18.369Z,0.00
2022-09-17T00:21:18.454Z,0.00
2022-09-17T00:22:18.348Z,0.00
2022-09-17T00:23:18.336Z,0.00
2022-09-17T00:24:18.325Z,0.00
2022-09-17T00:25:18.325Z,0.00
2022-09-17T00:26:18.316Z,0.00
2022-09-17T00:27:18.303Z,0.00
2022-09-17T00:28:18.321Z,0.00
2022-09-17T00:29:18.287Z,0.00
2022-09-17T00:31:18.219Z,0.00
2022-09-17T00:32:18.186Z,0.00
2022-09-17T00:33:19.268Z,0.00
2022-09-17T00:34:19.251Z,0.00
2022-09-17T00:35:19.248Z,0.00
2022-09-17T00:36:19.231Z,0.00
2022-09-17T00:37:20.336Z,0.00
2022-09-17T00:38:19.231Z,0.00
2022-09-17T00:39:19.216Z,0.00
2022-09-17T00:40:19.269Z,0.00
2022-09-17T00:41:19.201Z,0.00
2022-09-17T00:42:19.209Z,0.00
2022-09-17T00:43:19.185Z,0.00
2022-09-17T00:44:19.174Z,0.00
2022-09-17T00:45:19.174Z,0.00
2022-09-17T00:46:19.173Z,0.00
2022-09-17T00:47:19.159Z,0.00
2022-09-17T00:48:19.148Z,0.00
2022-09-17T00:49:19.135Z,0.00
2022-09-17T00:50:19.127Z,0.00
2022-09-17T00:51:19.130Z,0.00
2022-09-17T00:52:19.115Z,0.00
2022-09-17T00:53:19.202Z,0.00
2022-09-17T00:54:19.093Z,0.00
2022-09-17T00:55:19.091Z,0.00
2022-09-17T00:56:19.083Z,0.00
2022-09-17T00:57:19.082Z,0.00
2022-09-17T00:58:19.067Z,0.00
2022-09-17T00:59:19.069Z,0.00
2022-09-17T01:00:19.072Z,0.00
2022-09-17T01:01:19.142Z,0.00
2022-09-17T01:02:19.128Z,0.00
2022-09-17T01:03:19.028Z,0.00
2022-09-17T01:04:19.031Z,0.00
2022-09-17T01:05:19.010Z,0.00
2022-09-17T01:06:19.006Z,0.00
2022-09-17T01:07:19.000Z,0.00
2022-09-17T01:08:19.898Z,0.00
2022-09-17T01:09:19.080Z,0.00
2022-09-17T01:10:18.965Z,0.00
2022-09-17T01:11:18.959Z,0.00
2022-09-17T01:12:18.951Z,0.00
2022-09-17T01:13:18.943Z,0.00
2022-09-17T01:14:18.938Z,0.00
2022-09-17T01:15:18.923Z,0.00
2022-09-17T01:16:20.013Z,0.00
2022-09-17T01:17:18.915Z,0.00
2022-09-17T01:18:18.898Z,0.00
2022-09-17T01:19:18.905Z,0.00
2022-09-17T01:20:18.892Z,0.00
2022-09-17T01:21:18.881Z,0.00
2022-09-17T01:22:18.885Z,0.00
2022-09-17T01:23:18.862Z,0.00
2022-09-17T01:24:18.944Z,0.00
2022-09-17T01:25:18.956Z,0.00
2022-09-17T01:26:18.846Z,0.00
2022-09-17T01:27:18.856Z,0.00
2022-09-17T01:28:18.831Z,0.00
2022-09-17T01:29:18.822Z,0.00
2022-09-17T01:30:18.832Z,0.00
2022-09-17T01:31:18.858Z,0.00
2022-09-17T01:32:18.794Z,0.00
2022-09-17T01:33:18.803Z,0.00
2022-09-17T01:34:18.776Z,0.00
2022-09-17T01:35:18.774Z,0.00
2022-09-17T01:36:18.759Z,0.00
2022-09-17T01:37:18.751Z,0.00
2022-09-17T01:38:18.740Z,0.00
2022-09-17T01:39:18.735Z,0.00
2022-09-17T01:40:18.813Z,0.00
2022-09-17T01:41:18.822Z,0.00
2022-09-17T01:42:18.716Z,0.00
2022-09-17T01:43:18.706Z,0.00
2022-09-17T01:44:18.707Z,0.00
2022-09-17T01:45:18.697Z,0.00
2022-09-17T01:46:18.695Z,0.00
2022-09-17T01:47:21.016Z,0.00
2022-09-17T01:48:19.660Z,0.00
2022-09-17T01:49:18.654Z,0.00
2022-09-17T01:50:18.651Z,0.00
2022-09-17T01:51:18.657Z,0.00
2022-09-17T01:52:18.630Z,0.00
2022-09-17T01:53:18.628Z,0.00
2022-09-17T01:54:18.621Z,0.00
2022-09-17T01:55:18.613Z,0.00
2022-09-17T01:56:18.596Z,0.00
2022-09-17T01:57:18.736Z,0.00
2022-09-17T01:58:18.588Z,0.00
2022-09-17T01:59:18.574Z,0.00
2022-09-17T02:00:19.574Z,0.00
2022-09-17T02:01:18.632Z,0.00
2022-09-17T02:02:18.591Z,0.00
2022-09-17T02:03:18.541Z,0.00
2022-09-17T02:04:18.538Z,0.00
2022-09-17T02:05:18.538Z,0.00
2022-09-17T02:06:18.518Z,0.00
2022-09-17T02:07:18.522Z,0.00
2022-09-17T02:08:18.509Z,0.00
2022-09-17T02:09:18.501Z,0.00
2022-09-17T02:10:18.499Z,0.00
2022-09-17T02:11:18.477Z,0.00
2022-09-17T02:12:18.500Z,0.00
2022-09-17T02:13:18.568Z,0.00
2022-09-17T02:14:18.469Z,0.00
2022-09-17T02:15:18.455Z,0.00
2022-09-17T02:16:18.462Z,0.00
2022-09-17T02:17:19.437Z,0.00
2022-09-17T02:18:18.433Z,0.00
2022-09-17T02:19:18.422Z,0.00
2022-09-17T02:20:22.700Z,0.00
2022-09-17T02:21:19.400Z,0.00
2022-09-17T02:22:18.396Z,0.00
2022-09-17T02:23:18.408Z,0.00
2022-09-17T02:24:18.393Z,0.00
2022-09-17T02:25:18.385Z,0.00
2022-09-17T02:26:18.363Z,0.00
2022-09-17T02:27:18.352Z,0.00
2022-09-17T02:28:18.359Z,0.00
2022-09-17T02:29:18.441Z,0.00
2022-09-17T02:30:18.340Z,0.00
2022-09-17T02:31:18.390Z,0.00
2022-09-17T02:32:18.312Z,0.00
2022-09-17T02:33:18.297Z,0.00
2022-09-17T02:34:19.300Z,0.00
2022-09-17T02:35:18.297Z,0.00
2022-09-17T02:36:18.286Z,0.00
2022-09-17T02:37:18.941Z,0.00
2022-09-17T02:38:18.261Z,0.00
2022-09-17T02:39:18.258Z,0.00
2022-09-17T02:40:18.358Z,0.00
2022-09-17T02:41:18.251Z,0.00
2022-09-17T02:42:18.239Z,0.00
2022-09-17T02:43:18.225Z,0.00
2022-09-17T02:44:18.220Z,0.00
2022-09-17T02:45:18.308Z,0.00
2022-09-17T02:46:18.228Z,0.00
2022-09-17T02:47:18.200Z,0.00
2022-09-17T02:48:18.190Z,0.00
2022-09-17T02:49:18.183Z,0.00
2022-09-17T02:50:18.169Z,0.00
2022-09-17T02:51:18.176Z,0.00
2022-09-17T02:52:18.169Z,0.00
2022-09-17T02:53:18.148Z,0.00
2022-09-17T02:54:18.135Z,0.00
2022-09-17T02:55:18.135Z,0.00
2022-09-17T02:56:18.124Z,0.00
2022-09-17T02:57:18.129Z,0.00
2022-09-17T02:58:18.110Z,0.00
2022-09-17T02:59:18.104Z,0.00
2022-09-17T03:00:18.119Z,0.00
2022-09-17T03:01:18.279Z,0.00
2022-09-17T03:02:18.171Z,0.00
2022-09-17T03:03:18.068Z,0.00
2022-09-17T03:04:18.058Z,0.00
2022-09-17T03:05:18.053Z,0.00
2022-09-17T03:06:18.050Z,0.00
2022-09-17T03:07:18.030Z,0.00
2022-09-17T03:08:18.027Z,0.00
2022-09-17T03:09:18.020Z,0.00
2022-09-17T03:10:18.007Z,0.00
2022-09-17T03:11:18.009Z,0.00
2022-09-17T03:12:18.002Z,0.00
2022-09-17T03:13:17.983Z,0.00
2022-09-17T03:14:17.977Z,0.00
2022-09-17T03:15:17.979Z,0.00
2022-09-17T03:16:18.076Z,0.00
2022-09-17T03:17:18.062Z,0.00
2022-09-17T03:18:17.946Z,0.00
2022-09-17T03:19:17.951Z,0.00
2022-09-17T03:20:17.940Z,0.00
2022-09-17T03:21:17.921Z,0.00
2022-09-17T03:22:18.475Z,0.00
2022-09-17T03:23:17.911Z,0.00
2022-09-17T03:24:17.910Z,0.00
2022-09-17T03:25:17.891Z,0.00
2022-09-17T03:26:17.889Z,0.00
2022-09-17T03:27:17.932Z,0.00
2022-09-17T03:28:17.866Z,0.00
2022-09-17T03:29:17.859Z,0.00
2022-09-17T03:30:17.854Z,0.00
2022-09-17T03:31:17.890Z,0.00
2022-09-17T03:32:17.838Z,0.00
2022-09-17T03:33:17.935Z,0.00
2022-09-17T03:34:17.819Z,0.00
2022-09-17T03:35:17.813Z,0.00
2022-09-17T03:36:17.801Z,0.00
2022-09-17T03:37:17.794Z,0.00
2022-09-17T03:38:17.802Z,0.00
2022-09-17T03:39:17.779Z,0.00
2022-09-17T03:40:17.840Z,0.00
2022-09-17T03:41:17.762Z,0.00
2022-09-17T03:42:18.453Z,0.00
2022-09-17T03:43:17.746Z,0.00
2022-09-17T03:44:18.766Z,0.00
2022-09-17T03:45:17.731Z,0.00
2022-09-17T03:46:17.804Z,0.00
2022-09-17T03:47:17.718Z,0.00
2022-09-17T03:48:17.726Z,0.00
2022-09-17T03:49:17.801Z,0.00
2022-09-17T03:50:17.700Z,0.00
2022-09-17T03:51:17.694Z,0.00
2022-09-17T03:52:17.685Z,0.00
2022-09-17T03:53:17.679Z,0.00
2022-09-17T03:54:17.680Z,0.00
2022-09-17T03:55:17.663Z,0.00
2022-09-17T03:56:17.652Z,0.00
2022-09-17T03:57:17.949Z,0.00
2022-09-17T03:58:17.655Z,0.00
2022-09-17T03:59:17.631Z,0.00
2022-09-17T04:01:36.628Z,0.00
2022-09-17T04:02:36.584Z,0.00
2022-09-17T04:03:36.484Z,0.00
2022-09-17T04:04:36.583Z,0.00
2022-09-17T04:05:36.465Z,0.00
2022-09-17T04:06:36.459Z,0.00
2022-09-17T04:07:36.454Z,0.00
2022-09-17T04:08:36.448Z,0.00
2022-09-17T04:09:36.435Z,0.00
2022-09-17T04:10:36.427Z,0.00
2022-09-17T04:11:37.518Z,0.00
2022-09-17T04:12:37.502Z,0.00
2022-09-17T04:13:37.502Z,0.00
2022-09-17T04:14:37.499Z,0.00
2022-09-17T04:15:37.526Z,0.00
2022-09-17T04:16:37.476Z,0.00
2022-09-17T04:17:37.465Z,0.00
2022-09-17T04:18:37.469Z,0.00
2022-09-17T04:19:37.464Z,0.00
2022-09-17T04:20:37.546Z,0.00
2022-09-17T04:21:37.434Z,0.00
2022-09-17T04:22:37.437Z,0.00
2022-09-17T04:23:37.427Z,0.00
2022-09-17T04:24:37.412Z,0.00
2022-09-17T04:25:37.398Z,0.00
2022-09-17T04:26:37.390Z,0.00
2022-09-17T04:27:37.387Z,0.00
2022-09-17T04:28:37.373Z,0.00
2022-09-17T04:29:37.368Z,0.00
2022-09-17T04:30:37.362Z,0.00
2022-09-17T04:31:37.397Z,0.00
2022-09-17T04:32:38.862Z,0.00
2022-09-17T04:33:37.336Z,0.00
2022-09-17T04:34:37.324Z,0.00
2022-09-17T04:35:37.318Z,0.00
2022-09-17T04:36:37.412Z,0.00
2022-09-17T04:37:37.308Z,0.00
2022-09-17T04:38:37.294Z,0.00
2022-09-17T04:39:37.289Z,0.00
2022-09-17T04:40:37.350Z,0.00
2022-09-17T04:41:37.272Z,0.00
2022-09-17T04:42:37.269Z,0.00
2022-09-17T04:43:37.252Z,0.00
2022-09-17T04:44:37.256Z,0.00
2022-09-17T04:45:37.241Z,0.00
2022-09-17T04:46:37.281Z,0.00
2022-09-17T04:47:37.231Z,0.00
2022-09-17T04:48:37.216Z,0.00
2022-09-17T04:49:37.209Z,0.00
2022-09-17T04:50:37.204Z,0.00
2022-09-17T04:51:37.188Z,0.00
2022-09-17T04:52:37.307Z,0.00
2022-09-17T04:53:37.177Z,0.00
2022-09-17T04:54:37.166Z,0.00
2022-09-17T04:55:37.193Z,0.00
2022-09-17T04:56:37.153Z,0.00
2022-09-17T04:57:37.145Z,0.00
2022-09-17T04:58:37.137Z,0.00
2022-09-17T04:59:37.136Z,0.00
2022-09-17T05:00:37.192Z,5.62
2022-09-17T05:01:37.168Z,5.62
2022-09-17T05:02:37.109Z,5.62
2022-09-17T05:03:37.090Z,5.62
2022-09-17T05:04:37.088Z,5.62
2022-09-17T05:05:37.076Z,5.62
2022-09-17T05:06:37.067Z,5.62
2022-09-17T05:07:37.062Z,5.62
2022-09-17T05:08:37.152Z,5.62
2022-09-17T05:09:37.047Z,11.25
2022-09-17T05:10:37.038Z,11.25
2022-09-17T05:11:37.943Z,11.25
2022-09-17T05:12:37.016Z,11.25
2022-09-17T05:13:37.010Z,11.25
2022-09-17T05:14:37.004Z,11.25
2022-09-17T05:15:36.990Z,11.25
2022-09-17T05:16:37.010Z,11.25
2022-09-17T05:17:37.977Z,11.25
2022-09-17T05:18:36.969Z,16.88
2022-09-17T05:19:36.966Z,16.88
2022-09-17T05:20:36.957Z,11.25
2022-09-17T05:21:36.941Z,11.25
2022-09-17T05:22:36.935Z,11.25
2022-09-17T05:23:36.920Z,11.25
2022-09-17T05:24:38.022Z,11.25
2022-09-17T05:25:36.915Z,11.25
2022-09-17T05:26:36.896Z,11.25
2022-09-17T05:27:36.891Z,16.88
2022-09-17T05:28:36.888Z,22.50
2022-09-17T05:29:36.877Z,28.12
2022-09-17T05:30:36.878Z,33.75
2022-09-17T05:31:36.913Z,39.38
2022-09-17T05:32:37.376Z,45.00
2022-09-17T05:33:36.845Z,50.62
2022-09-17T05:34:36.839Z,45.00
2022-09-17T05:35:36.837Z,45.00
2022-09-17T05:36:36.819Z,56.25
2022-09-17T05:37:36.813Z,56.25
2022-09-17T05:38:36.810Z,56.25
2022-09-17T05:39:36.800Z,56.25
2022-09-17T05:40:36.937Z,73.12
2022-09-17T05:41:36.782Z,90.00
2022-09-17T05:42:36.774Z,95.62
2022-09-17T05:43:36.767Z,101.25
2022-09-17T05:44:36.757Z,101.25
2022-09-17T05:45:36.760Z,95.62
2022-09-17T05:46:36.799Z,95.62
2022-09-17T05:47:36.736Z,101.25
2022-09-17T05:48:36.728Z,118.12
2022-09-17T05:49:36.718Z,135.00
2022-09-17T05:50:36.716Z,129.38
2022-09-17T05:51:36.708Z,118.12
2022-09-17T05:52:36.700Z,112.50
2022-09-17T05:53:36.689Z,112.50
2022-09-17T05:54:36.689Z,118.12
2022-09-17T05:55:36.677Z,135.00
2022-09-17T05:56:36.796Z,146.25
2022-09-17T05:57:36.662Z,168.75
2022-09-17T05:58:36.660Z,180.00
2022-09-17T05:59:36.644Z,185.62
2022-09-17T06:00:36.637Z,219.38
2022-09-17T06:01:36.717Z,236.25
2022-09-17T06:02:37.416Z,196.88
2022-09-17T06:03:36.617Z,185.62
2022-09-17T06:04:36.618Z,247.50
2022-09-17T06:05:37.386Z,253.12
2022-09-17T06:06:36.609Z,258.75
2022-09-17T06:07:36.586Z,270.00
2022-09-17T06:08:36.576Z,253.12
2022-09-17T06:09:36.605Z,191.25
2022-09-17T06:10:36.569Z,247.50
2022-09-17T06:11:36.553Z,219.38
2022-09-17T06:12:36.744Z,230.62
2022-09-17T06:13:37.384Z,225.00
2022-09-17T06:14:36.531Z,219.38
2022-09-17T06:15:36.615Z,213.75
2022-09-17T06:16:36.598Z,230.62
2022-09-17T06:17:36.678Z,247.50
2022-09-17T06:18:36.503Z,230.62
2022-09-17T06:19:36.514Z,292.50
2022-09-17T06:20:36.524Z,202.50
2022-09-17T06:21:36.480Z,275.62
2022-09-17T06:22:37.464Z,315.00
2022-09-17T06:23:36.460Z,489.38
2022-09-17T06:24:36.454Z,146.25
2022-09-17T06:25:36.445Z,129.38
2022-09-17T06:26:36.445Z,135.00
2022-09-17T06:27:36.433Z,135.00
2022-09-17T06:28:41.286Z,146.25
2022-09-17T06:29:38.414Z,168.75
2022-09-17T06:30:36.409Z,202.50
2022-09-17T06:31:36.449Z,219.38
2022-09-17T06:32:37.606Z,236.25
2022-09-17T06:33:36.397Z,455.62
2022-09-17T06:34:36.377Z,315.00
2022-09-17T06:35:36.374Z,303.75
2022-09-17T06:36:36.369Z,371.25
2022-09-17T06:37:36.368Z,635.62
2022-09-17T06:38:36.347Z,720.00
2022-09-17T06:39:36.344Z,860.62
2022-09-17T06:40:36.399Z,517.50
2022-09-17T06:41:36.324Z,511.88
2022-09-17T06:42:36.327Z,961.88
2022-09-17T06:43:36.310Z,843.75
2022-09-17T06:44:36.398Z,478.12
2022-09-17T06:45:36.293Z,956.25
2022-09-17T06:46:36.329Z,691.88
2022-09-17T06:47:36.283Z,950.62
2022-09-17T06:48:36.268Z,506.25
2022-09-17T06:49:36.259Z,376.88
2022-09-17T06:50:40.607Z,236.25
2022-09-17T06:51:38.243Z,230.62
2022-09-17T06:52:36.235Z,264.38
2022-09-17T06:53:36.235Z,270.00
2022-09-17T06:54:36.221Z,258.75
2022-09-17T06:55:36.216Z,253.12
2022-09-17T06:56:36.216Z,275.62
2022-09-17T06:57:36.195Z,270.00
2022-09-17T06:58:36.195Z,253.12
2022-09-17T06:59:36.187Z,253.12
2022-09-17T07:00:36.337Z,253.12
2022-09-17T07:01:36.174Z,270.00
2022-09-17T07:02:36.163Z,275.62
2022-09-17T07:03:36.159Z,331.88
2022-09-17T07:04:36.145Z,433.12
2022-09-17T07:05:36.144Z,523.12
2022-09-17T07:06:36.129Z,388.12
2022-09-17T07:07:36.126Z,371.25
2022-09-17T07:08:36.130Z,399.38
2022-09-17T07:09:36.135Z,500.62
2022-09-17T07:10:36.099Z,821.25
2022-09-17T07:11:36.112Z,669.38
2022-09-17T07:12:36.095Z,585.00
2022-09-17T07:13:36.086Z,551.25
2022-09-17T07:14:36.067Z,573.75
2022-09-17T07:15:37.067Z,551.25
2022-09-17T07:16:36.347Z,568.12
2022-09-17T07:17:36.056Z,450.00
2022-09-17T07:18:36.052Z,843.75
2022-09-17T07:19:36.031Z,916.88
2022-09-17T07:20:36.024Z,815.62
2022-09-17T07:21:36.017Z,523.12
2022-09-17T07:22:36.061Z,922.50
2022-09-17T07:23:35.998Z,815.62
2022-09-17T07:24:36.908Z,579.38
2022-09-17T07:25:36.006Z,517.50
2022-09-17T07:26:35.973Z,551.25
2022-09-17T07:27:35.965Z,405.00
2022-09-17T07:28:35.964Z,388.12
2022-09-17T07:29:35.950Z,416.25
2022-09-17T07:30:35.949Z,337.50
2022-09-17T07:31:35.953Z,382.50
2022-09-17T07:32:36.029Z,523.12
2022-09-17T07:33:35.917Z,748.12
2022-09-17T07:34:35.908Z,793.12
2022-09-17T07:35:35.904Z,781.88
2022-09-17T07:36:35.893Z,776.25
2022-09-17T07:37:35.888Z,759.38
2022-09-17T07:38:35.882Z,759.38
2022-09-17T07:39:35.870Z,742.50
2022-09-17T07:40:35.987Z,765.00
2022-09-17T07:41:35.856Z,781.88
2022-09-17T07:42:35.855Z,765.00
2022-09-17T07:43:35.840Z,748.12
2022-09-17T07:44:35.833Z,624.38
2022-09-17T07:45:35.824Z,770.62
2022-09-17T07:46:35.863Z,765.00
2022-09-17T07:47:35.803Z,748.12
2022-09-17T07:48:35.917Z,725.62
2022-09-17T07:49:35.791Z,613.12
2022-09-17T07:50:35.785Z,849.38
2022-09-17T07:51:35.786Z,551.25
2022-09-17T07:52:35.773Z,506.25
2022-09-17T07:53:35.760Z,393.75
2022-09-17T07:54:35.756Z,365.62
2022-09-17T07:55:35.754Z,433.12
2022-09-17T07:56:35.747Z,410.62
2022-09-17T07:57:35.732Z,461.25
2022-09-17T07:58:35.726Z,585.00
2022-09-17T07:59:35.718Z,388.12
2022-09-17T08:00:35.713Z,376.88
2022-09-17T08:01:35.794Z,427.50
2022-09-17T08:02:35.776Z,433.12
2022-09-17T08:03:35.687Z,455.62
2022-09-17T08:04:35.779Z,455.62
2022-09-17T08:05:35.675Z,405.00
2022-09-17T08:06:35.660Z,388.12
2022-09-17T08:07:35.655Z,573.75
2022-09-17T08:08:35.644Z,590.62
2022-09-17T08:09:35.638Z,517.50
2022-09-17T08:10:35.633Z,354.38
2022-09-17T08:11:55.073Z,264.38
2022-09-17T08:12:37.618Z,208.12
2022-09-17T08:13:35.628Z,180.00
2022-09-17T08:14:37.519Z,191.25
2022-09-17T08:15:35.594Z,213.75
2022-09-17T08:16:35.648Z,236.25
2022-09-17T08:17:35.644Z,208.12
2022-09-17T08:18:35.571Z,213.75
2022-09-17T08:19:35.579Z,213.75
2022-09-17T08:20:35.661Z,202.50
2022-09-17T08:21:35.548Z,202.50
2022-09-17T08:22:35.538Z,208.12
2022-09-17T08:23:35.533Z,225.00
2022-09-17T08:24:35.528Z,225.00
2022-09-17T08:25:35.532Z,253.12
2022-09-17T08:26:35.510Z,264.38
2022-09-17T08:27:35.501Z,247.50
2022-09-17T08:28:35.491Z,264.38
2022-09-17T08:29:36.143Z,326.25
2022-09-17T08:30:35.489Z,438.75
2022-09-17T08:31:35.556Z,427.50
2022-09-17T08:32:35.461Z,450.00
2022-09-17T08:33:35.455Z,511.88
2022-09-17T08:34:35.449Z,551.25
2022-09-17T08:35:35.468Z,511.88
2022-09-17T08:36:35.541Z,438.75
2022-09-17T08:37:35.440Z,399.38
2022-09-17T08:38:38.036Z,371.25
2022-09-17T08:39:36.414Z,376.88
2022-09-17T08:40:35.464Z,405.00
2022-09-17T08:41:35.406Z,444.38
2022-09-17T08:42:35.943Z,433.12
2022-09-17T08:43:35.385Z,461.25
2022-09-17T08:44:35.377Z,371.25
2022-09-17T08:45:35.372Z,326.25
2022-09-17T08:46:35.415Z,365.62
2022-09-17T08:47:35.354Z,365.62
2022-09-17T08:48:35.349Z,360.00
2022-09-17T08:49:35.352Z,365.62
2022-09-17T08:50:35.339Z,382.50
2022-09-17T08:51:35.360Z,444.38
2022-09-17T08:52:35.415Z,500.62
2022-09-17T08:53:35.313Z,601.88
2022-09-17T08:54:35.295Z,517.50
2022-09-17T08:55:35.381Z,461.25
2022-09-17T08:56:35.279Z,444.38
2022-09-17T08:57:35.274Z,410.62
2022-09-17T08:58:35.266Z,416.25
2022-09-17T08:59:35.256Z,382.50
2022-09-17T09:00:35.256Z,286.88
2022-09-17T09:01:35.311Z,225.00
2022-09-17T09:02:36.037Z,185.62
2022-09-17T09:03:35.229Z,174.38
2022-09-17T09:04:35.221Z,174.38
2022-09-17T09:05:35.213Z,180.00
2022-09-17T09:06:35.207Z,208.12
2022-09-17T09:07:35.216Z,230.62
2022-09-17T09:08:35.293Z,241.88
2022-09-17T09:09:35.186Z,281.25
2022-09-17T09:10:35.188Z,264.38
2022-09-17T09:11:35.168Z,247.50
2022-09-17T09:12:35.180Z,247.50
2022-09-17T09:13:35.146Z,219.38
2022-09-17T09:14:35.145Z,196.88
2022-09-17T09:15:35.136Z,213.75
2022-09-17T09:16:35.199Z,213.75
2022-09-17T09:17:35.125Z,213.75
2022-09-17T09:18:35.117Z,202.50
2022-09-17T09:19:35.105Z,185.62
2022-09-17T09:20:35.104Z,163.12
2022-09-17T09:21:35.088Z,140.62
2022-09-17T09:22:35.081Z,118.12
2022-09-17T09:23:35.100Z,118.12
2022-09-17T09:24:35.166Z,135.00
2022-09-17T09:25:36.029Z,151.88
2022-09-17T09:26:35.054Z,157.50
2022-09-17T09:27:35.037Z,163.12
2022-09-17T09:28:35.038Z,174.38
2022-09-17T09:29:35.024Z,196.88
2022-09-17T09:30:35.016Z,219.38
2022-09-17T09:31:35.084Z,230.62
2022-09-17T09:32:35.005Z,241.88
2022-09-17T09:33:34.999Z,253.12
2022-09-17T09:34:34.985Z,253.12
2022-09-17T09:35:34.977Z,309.38
2022-09-17T09:36:34.998Z,320.62
2022-09-17T09:37:34.959Z,320.62
2022-09-17T09:38:34.964Z,320.62
2022-09-17T09:39:40.336Z,326.25
2022-09-17T09:40:37.142Z,331.88
2022-09-17T09:41:35.459Z,343.12
2022-09-17T09:42:34.931Z,365.62
2022-09-17T09:43:59.530Z,393.75
2022-09-17T09:44:36.918Z,393.75
2022-09-17T09:45:34.908Z,393.75
2022-09-17T09:46:34.970Z,416.25
2022-09-17T09:47:34.895Z,461.25
2022-09-17T09:48:34.877Z,523.12
2022-09-17T09:49:34.888Z,596.25
2022-09-17T09:51:01.915Z,630.00
2022-09-17T09:51:36.853Z,635.62
2022-09-17T09:52:34.852Z,635.62
2022-09-17T09:53:34.837Z,646.88
2022-09-17T09:54:34.840Z,646.88
2022-09-17T09:55:34.828Z,646.88
2022-09-17T09:56:34.917Z,601.88
2022-09-17T09:57:34.842Z,528.75
2022-09-17T09:58:34.797Z,478.12
2022-09-17T09:59:34.790Z,421.88
2022-09-17T10:00:34.785Z,388.12
2022-09-17T10:01:34.853Z,365.62
2022-09-17T10:02:34.883Z,388.12
2022-09-17T10:03:34.757Z,433.12
2022-09-17T10:04:34.746Z,438.75
2022-09-17T10:05:34.736Z,421.88
2022-09-17T10:06:34.734Z,427.50
2022-09-17T10:07:34.740Z,433.12
2022-09-17T10:08:34.710Z,444.38
2022-09-17T10:09:34.711Z,438.75
2022-09-17T10:10:34.698Z,433.12
2022-09-17T10:11:34.698Z,438.75
2022-09-17T10:12:34.787Z,444.38
2022-09-17T10:13:34.675Z,433.12
2022-09-17T10:14:34.671Z,427.50
2022-09-17T10:15:34.662Z,438.75
2022-09-17T10:16:34.674Z,444.38
2022-09-17T10:17:34.653Z,489.38
2022-09-17T10:18:34.648Z,489.38
2022-09-17T10:19:34.630Z,433.12
2022-09-17T10:20:34.620Z,354.38
2022-09-17T10:21:35.548Z,298.12
2022-09-17T10:22:34.609Z,281.25
2022-09-17T10:23:34.596Z,286.88
2022-09-17T10:24:34.599Z,303.75
2022-09-17T10:25:34.583Z,309.38
2022-09-17T10:26:34.584Z,303.75
2022-09-17T10:27:34.567Z,303.75
2022-09-17T10:28:34.660Z,309.38
2022-09-17T10:29:34.553Z,360.00
2022-09-17T10:30:34.540Z,343.12
2022-09-17T10:31:34.578Z,348.75
2022-09-17T10:32:34.530Z,331.88
2022-09-17T10:33:34.519Z,326.25
2022-09-17T10:34:34.516Z,326.25
2022-09-17T10:35:34.495Z,326.25
2022-09-17T10:36:37.950Z,331.88
2022-09-17T10:37:35.483Z,331.88
2022-09-17T10:38:34.480Z,331.88
2022-09-17T10:39:34.469Z,343.12
2022-09-17T10:40:34.489Z,360.00
2022-09-17T10:41:34.455Z,365.62
2022-09-17T10:42:34.441Z,365.62
2022-09-17T10:43:34.434Z,382.50
2022-09-17T10:44:34.525Z,371.25
2022-09-17T10:45:34.446Z,393.75
2022-09-17T10:46:34.460Z,360.00
2022-09-17T10:47:34.409Z,376.88
2022-09-17T10:48:34.391Z,421.88
2022-09-17T10:49:34.406Z,365.62
2022-09-17T10:50:34.993Z,376.88
2022-09-17T10:51:34.376Z,382.50
2022-09-17T10:52:35.496Z,382.50
2022-09-17T10:53:34.354Z,416.25
2022-09-17T10:54:34.348Z,455.62
2022-09-17T10:55:34.347Z,489.38
2022-09-17T10:56:34.347Z,472.50
2022-09-17T10:57:34.328Z,450.00
2022-09-17T10:58:37.159Z,483.75
2022-09-17T10:59:35.307Z,444.38
2022-09-17T11:00:34.331Z,348.75
2022-09-17T11:01:34.404Z,382.50
2022-09-17T11:02:35.350Z,343.12
2022-09-17T11:03:34.276Z,320.62
2022-09-17T11:04:34.265Z,281.25
2022-09-17T11:05:34.286Z,281.25
2022-09-17T11:06:34.248Z,270.00
2022-09-17T11:07:34.253Z,320.62
2022-09-17T11:08:34.243Z,320.62
2022-09-17T11:09:34.239Z,320.62
2022-09-17T11:10:34.228Z,315.00
2022-09-17T11:11:34.206Z,315.00
2022-09-17T11:12:34.203Z,309.38
2022-09-17T11:13:34.192Z,303.75
2022-09-17T11:14:34.191Z,298.12
2022-09-17T11:15:34.172Z,298.12
2022-09-17T11:16:34.350Z,298.12
2022-09-17T11:17:34.161Z,303.75
2022-09-17T11:18:34.151Z,298.12
2022-09-17T11:19:34.159Z,309.38
2022-09-17T11:20:34.135Z,315.00
2022-09-17T11:21:34.132Z,281.25
2022-09-17T11:22:34.120Z,292.50
2022-09-17T11:23:34.139Z,315.00
2022-09-17T11:24:34.119Z,286.88
2022-09-17T11:25:34.098Z,264.38
2022-09-17T11:26:34.094Z,230.62
2022-09-17T11:27:34.084Z,202.50
2022-09-17T11:28:34.073Z,196.88
2022-09-17T11:29:34.995Z,196.88
2022-09-17T11:30:34.058Z,202.50
2022-09-17T11:31:34.155Z,213.75
2022-09-17T11:32:34.144Z,225.00
2022-09-17T11:33:34.036Z,236.25
2022-09-17T11:34:34.021Z,264.38
2022-09-17T11:35:34.022Z,343.12
2022-09-17T11:36:34.016Z,388.12
2022-09-17T11:37:34.010Z,421.88
2022-09-17T11:38:33.993Z,438.75
2022-09-17T11:39:33.984Z,450.00
2022-09-17T11:40:34.027Z,461.25
2022-09-17T11:41:33.967Z,466.88
2022-09-17T11:42:33.967Z,466.88
2022-09-17T11:43:33.955Z,466.88
2022-09-17T11:44:33.941Z,466.88
2022-09-17T11:45:33.954Z,483.75
2022-09-17T11:46:33.985Z,450.00
2022-09-17T11:47:33.920Z,438.75
2022-09-17T11:48:34.009Z,495.00
2022-09-17T11:49:33.912Z,483.75
2022-09-17T11:50:33.895Z,450.00
2022-09-17T11:51:33.899Z,416.25
2022-09-17T11:52:33.882Z,393.75
2022-09-17T11:53:33.876Z,399.38
2022-09-17T11:54:33.873Z,382.50
2022-09-17T11:55:33.861Z,371.25
2022-09-17T11:56:33.847Z,320.62
2022-09-17T11:57:33.868Z,303.75
2022-09-17T11:58:33.832Z,286.88
2022-09-17T11:59:33.820Z,348.75
2022-09-17T12:00:33.818Z,343.12
2022-09-17T12:01:33.862Z,337.50
2022-09-17T12:02:33.957Z,320.62
2022-09-17T12:03:33.795Z,292.50
2022-09-17T12:04:33.879Z,264.38
2022-09-17T12:05:33.770Z,281.25
2022-09-17T12:06:33.770Z,292.50
2022-09-17T12:07:33.755Z,292.50
2022-09-17T12:08:33.747Z,326.25
2022-09-17T12:09:34.602Z,343.12
2022-09-17T12:10:34.096Z,354.38
2022-09-17T12:11:33.721Z,360.00
2022-09-17T12:12:49.780Z,416.25
2022-09-17T12:13:35.705Z,455.62
2022-09-17T12:14:33.715Z,506.25
2022-09-17T12:15:33.693Z,545.62
2022-09-17T12:16:33.771Z,568.12
2022-09-17T12:17:33.676Z,562.50
2022-09-17T12:18:33.849Z,551.25
2022-09-17T12:19:33.662Z,517.50
2022-09-17T12:20:33.746Z,495.00
2022-09-17T12:21:33.641Z,489.38
2022-09-17T12:22:36.969Z,455.62
2022-09-17T12:23:35.638Z,438.75
2022-09-17T12:24:33.628Z,405.00
2022-09-17T12:25:33.609Z,455.62
2022-09-17T12:26:33.653Z,472.50
2022-09-17T12:27:33.599Z,455.62
2022-09-17T12:28:33.587Z,438.75
2022-09-17T12:29:33.586Z,438.75
2022-09-17T12:30:33.577Z,433.12
2022-09-17T12:31:33.673Z,421.88
2022-09-17T12:32:33.555Z,421.88
2022-09-17T12:33:33.548Z,433.12
2022-09-17T12:34:33.552Z,421.88
2022-09-17T12:36:02.379Z,360.00
2022-09-17T12:36:35.631Z,331.88
2022-09-17T12:37:33.522Z,326.25
2022-09-17T12:38:33.520Z,337.50
2022-09-17T12:39:33.515Z,354.38
2022-09-17T12:40:33.544Z,365.62
2022-09-17T12:41:33.490Z,360.00
2022-09-17T12:42:33.484Z,365.62
2022-09-17T12:43:33.476Z,365.62
2022-09-17T12:44:33.456Z,365.62
2022-09-17T12:45:34.468Z,360.00
2022-09-17T12:46:33.505Z,354.38
2022-09-17T12:47:33.446Z,360.00
2022-09-17T12:48:33.432Z,371.25
2022-09-17T12:49:34.098Z,382.50
2022-09-17T12:50:33.427Z,410.62